Sign-in with your pilot id or email, or register

ICAO: EIDW Name / Country: DUBLIN / Ireland
Latitude: 53.4213 Longitude: -6.27007
Total Arrivals:
Strict Standards: Non-static method AirportData::getarrflights() should not be called statically, assuming $this from incompatible context in /var/www/customers/vh-7192/web/home/phpvms/core/templates/airport_info.tpl on line 18
0
Total Departures:
Strict Standards: Non-static method AirportData::getdeptflights() should not be called statically, assuming $this from incompatible context in /var/www/customers/vh-7192/web/home/phpvms/core/templates/airport_info.tpl on line 21
0
Latest Arrival: (-) Latest Departure: (-)
Metar: EIDW 172300Z 12003KT 9999 FEW030 05/05 Q1029 NOSIG
More info

Charts for EIDW


NOTAM


Warning: file_get_contents(http://api.vateud.net/notams/EIDW.json): failed to open stream: Redirection limit reached, aborting in /var/www/customers/vh-7192/web/home/phpvms/core/common/NOTAMSData.class.php on line 18

Warning: Invalid argument supplied for foreach() in /var/www/customers/vh-7192/web/home/phpvms/core/common/NOTAMSData.class.php on line 22

DUBLIN